Terminal Aerodrome Forecast
Issued by NWS Cleveland, OH

Current Version | Previous Version | Text Only | Print | Product List | Glossary On
Versions: 1 2 3 4 5 6 7 8 9 10 11 12 13 14 15 16 17 18
299
FTUS41 KCLE 241120
TAFMFD
TAF
KMFD 241120Z 2412/2512 26008KT P6SM SCT040
     FM241600 27012G20KT P6SM BKN040
     FM242300 26008KT P6SM BKN040=

USA.gov is the U.S. government's official web portal to all federal, state and local government web resources and services.